Time;durP1;ratioP1;P1;durP2;ratioP2;P2;SDS_P1;SDS_P2;PMS_P1;PMS_P2;Temp;Humidity;BMP_temperature;BMP_pressure;BME280_temperature;BME280_humidity;BME280_pressure;Samples;Min_cycle;Max_cycle;Signal;HPM_P1;HPM_P2
2021/08/25 00:02:12;;;;;;;6.45;3.47;;;;;;;16.82;50.18;102576.75;4868016;28;115257;-62
2021/08/25 00:04:40;;;;;;;5.13;3.53;;;;;;;16.80;50.30;102569.69;4866983;28;114927;-62
2021/08/25 00:07:08;;;;;;;5.03;3.10;;;;;;;16.77;50.52;102570.69;4869681;28;124408;-62
2021/08/25 00:09:37;;;;;;;3.90;2.58;;;;;;;16.76;50.56;102574.28;4879267;28;124281;-63
2021/08/25 00:12:06;;;;;;;5.30;2.97;;;;;;;16.73;50.51;102564.59;4861093;28;114207;-63
2021/08/25 00:14:40;;;;;;;6.20;3.35;;;;;;;16.72;50.62;102570.03;4868130;28;114317;-63
2021/08/25 00:17:08;;;;;;;6.20;3.10;;;;;;;16.69;50.57;102562.16;4867300;28;124641;-63
2021/08/25 00:19:36;;;;;;;5.03;2.95;;;;;;;16.67;50.49;102558.63;4872352;28;123301;-65
2021/08/25 00:22:04;;;;;;;4.82;3.10;;;;;;;16.66;50.72;102562.25;4863966;28;114221;-63
2021/08/25 00:24:31;;;;;;;4.95;3.20;;;;;;;16.63;50.70;102557.03;4866559;28;114030;-62
2021/08/25 00:26:58;;;;;;;4.60;2.92;;;;;;;16.62;50.73;102555.31;4868942;28;124238;-62
2021/08/25 00:29:25;;;;;;;6.07;3.55;;;;;;;16.57;50.96;102550.16;4865936;28;124455;-62
2021/08/25 00:31:52;;;;;;;4.90;2.85;;;;;;;16.54;50.72;102548.47;4857387;28;114501;-62
2021/08/25 00:34:19;;;;;;;4.90;2.92;;;;;;;16.51;50.73;102537.91;4850401;28;113010;-62
2021/08/25 00:36:46;;;;;;;4.63;3.00;;;;;;;16.46;50.79;102550.63;4856852;28;123657;-62
2021/08/25 00:39:14;;;;;;;4.88;3.00;;;;;;;16.42;50.85;102551.66;4867740;28;122656;-63
2021/08/25 00:41:41;;;;;;;7.47;3.17;;;;;;;16.40;51.01;102548.19;4864498;28;113998;-62
2021/08/25 00:44:11;;;;;;;5.10;2.88;;;;;;;16.38;50.98;102547.38;4851931;28;114300;-63
2021/08/25 00:46:38;;;;;;;4.97;3.20;;;;;;;16.36;51.03;102546.59;4845999;28;123568;-62
2021/08/25 00:49:05;;;;;;;6.70;3.28;;;;;;;16.34;51.17;102543.97;4868248;28;124172;-65
2021/08/25 00:51:33;;;;;;;5.18;3.00;;;;;;;16.32;51.21;102542.31;4845002;28;115096;-65
2021/08/25 00:54:01;;;;;;;5.75;3.17;;;;;;;16.29;51.36;102543.31;4873278;28;115341;-65
2021/08/25 00:56:28;;;;;;;5.95;3.45;;;;;;;16.27;51.33;102541.63;4871328;28;123868;-64
2021/08/25 00:58:55;;;;;;;5.65;3.35;;;;;;;16.25;51.45;102540.81;4865120;28;124317;-65
2021/08/25 01:01:31;;;;;;;6.78;3.25;;;;;;;16.21;51.57;102539.22;4870243;28;114954;-64
2021/08/25 01:04:02;;;;;;;4.50;3.28;;;;;;;16.17;51.55;102534.94;4855790;28;113979;-62
2021/08/25 01:06:30;;;;;;;5.95;3.20;;;;;;;16.14;51.80;102533.25;4850442;28;124671;-62
2021/08/25 01:08:59;;;;;;;5.15;3.30;;;;;;;16.12;51.74;102541.34;4872325;28;124095;-65
2021/08/25 01:11:27;;;;;;;5.72;2.80;;;;;;;16.11;51.62;102534.25;4869424;28;114353;-65
2021/08/25 01:13:54;;;;;;;5.43;3.35;;;;;;;16.09;51.70;102536.13;4849680;28;113018;-65
2021/08/25 01:16:21;;;;;;;5.00;3.45;;;;;;;16.06;51.88;102530.88;4841461;28;123643;-65
2021/08/25 01:18:49;;;;;;;4.68;3.00;;;;;;;16.05;51.88;102534.50;4861887;28;124117;-65
2021/08/25 01:21:17;;;;;;;4.80;3.00;;;;;;;16.03;51.87;102531.03;4854702;28;114135;-65
2021/08/25 01:23:46;;;;;;;5.97;3.22;;;;;;;16.03;52.01;102536.38;4866141;28;114179;-65
2021/08/25 01:26:15;;;;;;;4.78;3.00;;;;;;;16.01;51.84;102538.25;4865142;28;124876;-65
2021/08/25 01:28:49;;;;;;;5.30;3.03;;;;;;;16.00;52.04;102531.16;4843695;28;122940;-65
2021/08/25 01:31:18;;;;;;;4.60;3.00;;;;;;;16.00;52.04;102525.78;4871793;28;114168;-65
2021/08/25 01:33:45;;;;;;;6.20;3.08;;;;;;;15.98;51.98;102525.00;4867425;28;114133;-65
2021/08/25 01:36:14;;;;;;;4.82;3.05;;;;;;;15.97;52.14;102520.56;4862909;28;123984;-65
2021/08/25 01:38:53;;;;;;;6.57;3.53;;;;;;;15.94;52.28;102521.56;4871799;28;123831;-65
2021/08/25 01:41:22;;;;;;;5.25;2.90;;;;;;;15.93;52.09;102508.28;4851986;28;114882;-65
2021/08/25 01:43:57;;;;;;;6.22;3.17;;;;;;;15.89;51.94;102512.00;4874528;28;115544;-65
2021/08/25 01:46:28;;;;;;;5.90;3.22;;;;;;;15.88;52.12;102515.59;4869947;28;123844;-65
2021/08/25 01:48:56;;;;;;;5.57;3.15;;;;;;;15.85;52.18;102505.06;4853856;28;123739;-65
2021/08/25 01:51:25;;;;;;;8.27;3.53;;;;;;;15.81;52.17;102503.44;4873543;28;114918;-65
2021/08/25 01:53:52;;;;;;;6.50;3.55;;;;;;;15.77;52.36;102503.56;4868001;28;113128;-64
2021/08/25 01:56:20;;;;;;;5.72;3.78;;;;;;;15.74;52.39;102506.34;4862276;28;124160;-64
2021/08/25 01:58:47;;;;;;;5.65;3.47;;;;;;;15.72;52.45;102500.16;4871112;28;123769;-64
2021/08/25 02:01:14;;;;;;;5.10;3.17;;;;;;;15.70;52.54;102502.03;4869726;28;114284;-64
2021/08/25 02:03:41;;;;;;;5.53;3.00;;;;;;;15.68;52.76;102498.53;4864855;28;113644;-64
2021/08/25 02:06:09;;;;;;;5.25;3.08;;;;;;;15.67;52.79;102506.63;4869174;28;123912;-64
2021/08/25 02:08:36;;;;;;;6.63;3.45;;;;;;;15.66;52.82;102499.56;4859819;28;123784;-64
2021/08/25 02:11:03;;;;;;;6.40;2.75;;;;;;;15.64;52.79;102496.94;4867632;28;114549;-64
2021/08/25 02:13:30;;;;;;;5.55;3.45;;;;;;;15.62;52.85;102498.78;4863475;28;114049;-64
2021/08/25 02:15:57;;;;;;;4.88;2.78;;;;;;;15.60;52.80;102495.31;4866075;28;124525;-64
2021/08/25 02:18:25;;;;;;;5.13;3.05;;;;;;;15.59;53.01;102488.22;4853493;28;122757;-64
2021/08/25 02:20:52;;;;;;;7.68;3.75;;;;;;;15.58;52.89;102499.84;4865239;28;114042;-64
2021/08/25 02:23:19;;;;;;;4.93;3.40;;;;;;;15.57;52.91;102490.09;4862277;28;113804;-65
2021/08/25 02:25:46;;;;;;;5.97;3.28;;;;;;;15.55;53.11;102503.50;4860065;28;123944;-65
2021/08/25 02:28:13;;;;;;;5.20;3.20;;;;;;;15.54;52.96;102500.91;4865140;28;124210;-64
2021/08/25 02:30:42;;;;;;;5.25;3.17;;;;;;;15.53;53.00;102496.50;4864175;28;97006;-65
2021/08/25 02:33:09;;;;;;;5.45;3.15;;;;;;;15.53;53.27;102504.50;4864051;28;114747;-65
2021/08/25 02:35:47;;;;;;;5.68;3.63;;;;;;;15.52;53.33;102497.41;4863930;28;124824;-65
2021/08/25 02:38:15;;;;;;;5.60;3.47;;;;;;;15.52;53.16;102492.06;4832705;28;123726;-64
2021/08/25 02:40:42;;;;;;;4.43;2.92;;;;;;;15.51;53.09;102490.34;4854854;28;115053;-64
2021/08/25 02:43:10;;;;;;;5.47;3.45;;;;;;;15.50;53.19;102488.59;4846062;28;113928;-64
2021/08/25 02:45:37;;;;;;;6.10;3.28;;;;;;;15.49;52.91;102486.88;4828446;29;124154;-64
2021/08/25 02:48:04;;;;;;;5.65;3.50;;;;;;;15.48;53.26;102485.09;4849378;29;123802;-64
2021/08/25 02:50:32;;;;;;;5.63;3.58;;;;;;;15.47;53.12;102472.69;4849613;29;114650;-64
2021/08/25 02:52:59;;;;;;;5.88;3.50;;;;;;;15.45;53.26;102474.56;4851286;29;114062;-64
2021/08/25 02:55:26;;;;;;;5.30;3.42;;;;;;;15.44;53.22;102464.81;4844635;29;124383;-64
2021/08/25 02:57:53;;;;;;;5.85;3.60;;;;;;;15.42;53.36;102464.84;4846163;29;124483;-65
2021/08/25 03:00:20;;;;;;;5.97;3.70;;;;;;;15.38;53.38;102458.75;4835457;29;113567;-65
2021/08/25 03:02:47;;;;;;;6.20;3.67;;;;;;;15.37;53.37;102451.69;4842876;29;114404;-64
2021/08/25 03:05:15;;;;;;;6.80;3.83;;;;;;;15.34;53.40;102451.81;4845424;28;124252;-64
2021/08/25 03:07:42;;;;;;;6.25;3.55;;;;;;;15.31;53.36;102457.28;4844819;28;124095;-64
2021/08/25 03:10:10;;;;;;;6.70;3.85;;;;;;;15.29;53.58;102453.78;4831141;29;113095;-64
2021/08/25 03:12:37;;;;;;;5.57;3.60;;;;;;;15.27;53.64;102449.44;4851035;29;114270;-64
2021/08/25 03:15:06;;;;;;;5.35;3.38;;;;;;;15.25;53.70;102457.50;4843706;29;123882;-66
2021/08/25 03:17:34;;;;;;;6.18;3.42;;;;;;;15.23;53.62;102454.03;4847613;29;123852;-65
2021/08/25 03:20:01;;;;;;;6.00;3.90;;;;;;;15.21;53.69;102455.03;4846261;29;114825;-66
2021/08/25 03:22:28;;;;;;;5.72;3.63;;;;;;;15.19;53.62;102452.41;4846530;29;115402;-66
2021/08/25 03:24:56;;;;;;;7.72;3.70;;;;;;;15.17;53.76;102455.13;4846918;29;124333;-64
2021/08/25 03:27:23;;;;;;;7.10;4.00;;;;;;;15.15;53.75;102451.66;4846974;29;124412;-64
2021/08/25 03:29:50;;;;;;;7.63;3.80;;;;;;;15.13;53.69;102458.84;4848877;29;115078;-64
2021/08/25 03:32:17;;;;;;;8.52;3.60;;;;;;;15.12;53.75;102456.25;4828610;29;114858;-64
2021/08/25 03:34:45;;;;;;;7.78;4.07;;;;;;;15.11;53.92;102449.19;4848347;29;124772;-64
2021/08/25 03:37:12;;;;;;;7.25;3.70;;;;;;;15.09;53.86;102445.72;4840629;29;123965;-66
2021/08/25 03:39:39;;;;;;;7.82;3.33;;;;;;;15.08;53.80;102444.81;4846238;29;114130;-64
2021/08/25 03:42:08;;;;;;;6.65;3.78;;;;;;;15.07;53.64;102444.88;4836260;29;112726;-64
2021/08/25 03:44:37;;;;;;;7.00;3.72;;;;;;;15.05;53.76;102444.94;4849300;29;123997;-64
2021/08/25 03:47:05;;;;;;;6.63;3.80;;;;;;;15.04;53.74;102437.00;4844192;29;124360;-64
2021/08/25 03:49:33;;;;;;;7.53;3.38;;;;;;;15.02;53.87;102433.53;4845249;29;114584;-64
2021/08/25 03:52:01;;;;;;;5.65;3.83;;;;;;;15.00;53.93;102420.22;4846331;29;113987;-64
2021/08/25 03:54:29;;;;;;;7.00;3.63;;;;;;;14.98;53.92;102427.44;4845982;29;124204;-64
2021/08/25 03:56:56;;;;;;;6.82;3.58;;;;;;;14.96;54.04;102419.47;4847189;29;123746;-64
2021/08/25 03:59:23;;;;;;;7.30;3.80;;;;;;;14.94;54.04;102416.00;4853722;29;114356;-64
2021/08/25 04:01:50;;;;;;;5.22;3.50;;;;;;;14.93;54.02;102413.38;4848492;29;113892;-64
2021/08/25 04:04:18;;;;;;;6.18;3.80;;;;;;;14.91;54.07;102421.44;4835247;29;123116;-64
2021/08/25 04:06:45;;;;;;;7.10;3.92;;;;;;;14.89;54.11;102423.31;4857059;29;123833;-64
2021/08/25 04:09:12;;;;;;;5.53;3.45;;;;;;;14.87;54.19;102419.81;4851351;29;115422;-64
2021/08/25 04:11:39;;;;;;;6.95;3.70;;;;;;;14.86;54.24;102418.09;4851295;29;114916;-64
2021/08/25 04:14:06;;;;;;;6.25;3.90;;;;;;;14.84;54.26;102414.59;4832334;29;124824;-65
2021/08/25 04:16:33;;;;;;;7.30;4.28;;;;;;;14.82;54.21;102415.59;4848567;29;123391;-64
2021/08/25 04:19:00;;;;;;;5.18;3.35;;;;;;;14.81;54.44;102409.41;4851027;29;114454;-64
2021/08/25 04:21:27;;;;;;;6.65;3.78;;;;;;;14.78;54.29;102409.50;4850687;29;113309;-64
2021/08/25 04:23:55;;;;;;;6.65;3.40;;;;;;;14.78;54.29;102414.84;4839948;29;124362;-64
2021/08/25 04:26:22;;;;;;;6.05;3.67;;;;;;;14.76;54.27;102411.34;4845935;29;124544;-64
2021/08/25 04:28:49;;;;;;;6.45;3.70;;;;;;;14.75;54.16;102420.31;4846188;29;114962;-64
2021/08/25 04:31:16;;;;;;;8.15;4.10;;;;;;;14.75;54.27;102414.97;4833583;29;114012;-64
2021/08/25 04:33:44;;;;;;;7.20;4.03;;;;;;;14.74;54.35;102418.56;4847069;29;124586;-64
2021/08/25 04:36:11;;;;;;;6.60;3.72;;;;;;;14.73;54.32;102406.13;4843639;29;123644;-64
2021/08/25 04:38:38;;;;;;;6.90;3.67;;;;;;;14.71;54.38;102414.22;4853148;28;114604;-64
2021/08/25 04:41:06;;;;;;;7.03;4.05;;;;;;;14.70;54.26;102416.94;4830884;29;113157;-64
2021/08/25 04:43:33;;;;;;;7.38;3.55;;;;;;;14.68;54.40;102413.44;4831226;29;123913;-64
2021/08/25 04:46:01;;;;;;;6.55;3.90;;;;;;;14.67;54.27;102411.69;4851955;29;123952;-64
2021/08/25 04:48:28;;;;;;;5.72;3.60;;;;;;;14.66;54.36;102409.97;4854971;29;114169;-64
2021/08/25 04:50:55;;;;;;;8.05;4.30;;;;;;;14.63;54.35;102410.06;4836860;29;112901;-64
2021/08/25 04:53:23;;;;;;;7.10;4.05;;;;;;;14.62;54.53;102413.66;4817114;29;123956;-64
2021/08/25 04:55:50;;;;;;;8.18;4.15;;;;;;;14.62;54.40;102408.31;4849347;29;124044;-64
2021/08/25 04:58:21;;;;;;;8.02;4.32;;;;;;;14.60;54.44;102411.94;4845990;29;115446;-64
2021/08/25 05:00:48;;;;;;;9.13;4.15;;;;;;;14.58;54.58;102403.13;4843219;29;114985;-65
2021/08/25 05:03:16;;;;;;;6.25;3.90;;;;;;;14.57;54.61;102404.03;4827124;29;123528;-66
2021/08/25 05:05:43;;;;;;;8.13;4.35;;;;;;;14.58;54.71;102400.47;4846848;29;124723;-66
2021/08/25 05:08:10;;;;;;;8.85;4.20;;;;;;;14.59;54.92;102404.84;4846415;28;114348;-64
2021/08/25 05:10:37;;;;;;;8.32;4.65;;;;;;;14.58;54.78;102403.13;4850247;29;114492;-63
2021/08/25 05:13:04;;;;;;;7.35;4.50;;;;;;;14.60;55.01;102401.25;4829416;29;124262;-64
2021/08/25 05:15:32;;;;;;;6.78;4.00;;;;;;;14.62;55.04;102397.66;4847352;29;123901;-64
2021/08/25 05:17:59;;;;;;;9.05;4.38;;;;;;;14.62;55.27;102393.22;4837974;29;114174;-64
2021/08/25 05:20:26;;;;;;;9.07;4.50;;;;;;;14.63;55.10;102394.06;4838503;29;113202;-64
2021/08/25 05:22:53;;;;;;;9.00;4.57;;;;;;;14.67;55.17;102385.03;4848287;29;124101;-64
2021/08/25 05:25:21;;;;;;;8.98;4.60;;;;;;;14.69;55.19;102393.84;4845793;29;125441;-64
2021/08/25 05:27:48;;;;;;;8.55;4.82;;;;;;;14.71;55.31;102391.97;4845064;29;114774;-64
2021/08/25 05:30:15;;;;;;;8.07;4.40;;;;;;;14.74;55.34;102402.53;4829284;29;113255;-64
2021/08/25 05:32:42;;;;;;;7.85;4.25;;;;;;;14.77;55.49;102407.78;4835012;29;124163;-63
2021/08/25 05:35:10;;;;;;;7.53;4.45;;;;;;;14.79;55.57;102408.59;4851051;29;124148;-63
2021/08/25 05:37:37;;;;;;;6.78;4.63;;;;;;;14.82;55.61;102405.78;4854385;29;114442;-63
2021/08/25 05:40:05;;;;;;;9.40;4.65;;;;;;;14.85;55.71;102416.34;4835602;29;112947;-64
2021/08/25 05:42:32;;;;;;;9.63;5.45;;;;;;;14.89;55.85;102412.63;4847035;28;124044;-65
2021/08/25 05:44:59;;;;;;;16.23;5.00;;;;;;;14.92;55.90;102412.53;4846979;29;124644;-64
2021/08/25 05:47:26;;;;;;;10.63;5.50;;;;;;;14.98;56.00;102406.94;4849116;29;115122;-64
2021/08/25 05:49:53;;;;;;;10.80;5.55;;;;;;;15.04;56.14;102410.31;4845700;29;114767;-64
2021/08/25 05:52:21;;;;;;;9.98;5.43;;;;;;;15.09;56.30;102403.00;4841999;29;124218;-64
2021/08/25 05:54:48;;;;;;;11.18;5.60;;;;;;;15.15;56.26;102408.09;4825884;29;122828;-64
2021/08/25 05:57:15;;;;;;;8.32;5.40;;;;;;;15.21;56.40;102402.50;4841361;29;114122;-64
2021/08/25 05:59:42;;;;;;;8.80;5.32;;;;;;;15.29;56.31;102397.72;4842059;29;114386;-64
2021/08/25 06:02:11;;;;;;;9.88;5.93;;;;;;;15.36;56.58;102396.56;4850814;29;124686;-64
2021/08/25 06:04:39;;;;;;;11.05;6.40;;;;;;;15.44;56.69;102398.06;4841184;29;123992;-64
2021/08/25 06:07:15;;;;;;;12.73;6.38;;;;;;;15.52;56.64;102401.25;4823526;29;113808;-65
2021/08/25 06:09:42;;;;;;;9.57;6.18;;;;;;;15.60;56.59;102393.84;4849838;29;114293;-64
2021/08/25 06:12:09;;;;;;;10.52;5.82;;;;;;;15.67;56.70;102395.31;4838622;29;124099;-65
2021/08/25 06:14:38;;;;;;;10.52;6.57;;;;;;;15.74;56.78;102391.47;4846793;29;123780;-64
2021/08/25 06:17:06;;;;;;;11.77;6.70;;;;;;;15.83;56.91;102389.38;4833735;29;114723;-65
2021/08/25 06:19:33;;;;;;;12.85;6.60;;;;;;;15.91;56.91;102395.22;4845031;29;114732;-64
2021/08/25 06:22:00;;;;;;;11.10;6.55;;;;;;;15.99;56.96;102401.09;4837247;29;123830;-65
2021/08/25 06:24:27;;;;;;;11.15;6.82;;;;;;;16.08;56.94;102406.06;4843406;29;123782;-65
2021/08/25 06:26:54;;;;;;;12.02;7.07;;;;;;;16.17;57.01;102406.63;4844985;28;114082;-65
2021/08/25 06:29:22;;;;;;;11.15;6.70;;;;;;;16.24;57.05;102400.94;4844502;29;114862;-65
2021/08/25 06:31:49;;;;;;;9.77;6.47;;;;;;;16.33;57.20;102405.00;4839440;28;123890;-65
2021/08/25 06:34:16;;;;;;;11.25;6.45;;;;;;;16.41;57.25;102397.50;4823928;29;124015;-65
2021/08/25 06:36:43;;;;;;;11.18;6.38;;;;;;;16.51;57.26;102404.16;4855672;28;115239;-65
2021/08/25 06:39:10;;;;;;;11.85;7.35;;;;;;;16.60;57.21;102407.38;4857360;29;114910;-65
2021/08/25 06:41:37;;;;;;;10.68;6.43;;;;;;;16.70;57.29;102416.72;4849000;28;124576;-65
2021/08/25 06:44:05;;;;;;;10.20;6.57;;;;;;;16.80;57.52;102420.72;4840307;29;124325;-65
2021/08/25 06:46:32;;;;;;;11.88;6.65;;;;;;;16.92;57.38;102413.97;4811459;29;113794;-65
2021/08/25 06:49:00;;;;;;;11.00;6.25;;;;;;;17.05;57.35;102419.63;4837583;29;113972;-65
2021/08/25 06:51:28;;;;;;;10.70;6.32;;;;;;;17.16;57.32;102422.66;4846174;29;124091;-65
2021/08/25 06:53:56;;;;;;;11.65;6.00;;;;;;;17.29;57.63;102413.09;4854065;28;123963;-65
2021/08/25 06:56:23;;;;;;;10.40;6.07;;;;;;;17.47;57.40;102415.81;4848775;29;113984;-65
2021/08/25 06:58:50;;;;;;;12.40;6.53;;;;;;;17.63;57.38;102416.78;4840818;28;113920;-65
2021/08/25 07:01:17;;;;;;;12.07;5.88;;;;;;;17.82;57.42;102411.38;4835508;29;124594;-65
2021/08/25 07:03:45;;;;;;;10.35;6.28;;;;;;;18.03;57.17;102416.63;4835009;29;124929;-65
2021/08/25 07:06:12;;;;;;;10.95;6.63;;;;;;;18.19;56.92;102419.38;4843941;28;114278;-65
2021/08/25 07:08:40;;;;;;;9.85;6.07;;;;;;;18.36;56.82;102405.94;4834905;29;112949;-65
2021/08/25 07:11:07;;;;;;;9.40;5.72;;;;;;;18.55;56.51;102404.94;4839798;28;123526;-65
2021/08/25 07:13:35;;;;;;;9.52;5.65;;;;;;;18.73;56.25;102406.66;4836869;29;123975;-65
2021/08/25 07:16:02;;;;;;;9.27;5.55;;;;;;;18.91;56.25;102403.91;4847974;28;114067;-65
2021/08/25 07:18:48;;;;;;;11.00;6.15;;;;;;;19.14;56.42;102400.84;4840809;29;113877;-65
2021/08/25 07:21:22;;;;;;;10.77;5.90;;;;;;;19.38;56.42;102405.75;4855945;29;126606;-65
2021/08/25 07:23:50;;;;;;;9.90;5.57;;;;;;;19.62;56.14;102403.47;4853155;28;124008;-65
2021/08/25 07:26:17;;;;;;;9.38;4.80;;;;;;;19.84;55.72;102408.50;4854621;28;115618;-65
2021/08/25 07:28:45;;;;;;;7.05;5.10;;;;;;;20.02;54.98;102404.72;4854582;29;115043;-65
2021/08/25 07:31:13;;;;;;;9.98;5.20;;;;;;;20.16;54.69;102403.00;4857083;28;123882;-65
2021/08/25 07:33:42;;;;;;;7.78;5.00;;;;;;;20.31;54.36;102402.06;4856587;28;124436;-65
2021/08/25 07:36:09;;;;;;;9.25;5.13;;;;;;;20.47;54.29;102395.72;4858143;28;114332;-65
2021/08/25 07:38:37;;;;;;;8.82;5.38;;;;;;;20.66;54.36;102396.31;4857811;28;114788;-65
2021/08/25 07:41:05;;;;;;;7.78;4.93;;;;;;;20.85;53.80;102395.16;4858712;28;124432;-65
2021/08/25 07:43:32;;;;;;;8.70;4.50;;;;;;;21.00;53.41;102388.78;4856570;28;124876;-65
2021/08/25 07:45:59;;;;;;;7.53;4.57;;;;;;;21.14;53.21;102386.06;4858026;28;114120;-65
2021/08/25 07:48:27;;;;;;;7.88;4.50;;;;;;;21.29;52.78;102383.34;4854584;28;114123;-65
2021/08/25 07:50:54;;;;;;;7.40;4.10;;;;;;;21.43;52.54;102385.97;4853454;29;123893;-65
2021/08/25 07:53:22;;;;;;;8.20;4.57;;;;;;;21.58;52.29;102384.13;4848664;29;124238;-65
2021/08/25 07:55:50;;;;;;;9.52;4.63;;;;;;;21.75;52.47;102385.66;4848444;28;115037;-65
2021/08/25 07:58:17;;;;;;;8.10;4.30;;;;;;;21.93;52.31;102373.63;4853150;29;114298;-65
2021/08/25 08:00:49;;;;;;;6.80;4.00;;;;;;;22.12;51.17;102381.31;4852324;28;124085;-65
2021/08/25 08:03:17;;;;;;;7.05;4.10;;;;;;;22.23;50.44;102380.56;4838726;28;124656;-65
2021/08/25 08:05:44;;;;;;;6.57;3.67;;;;;;;22.30;50.40;102376.50;4843163;29;114121;-65
2021/08/25 08:08:11;;;;;;;7.30;4.28;;;;;;;22.42;50.35;102379.31;4855521;28;113880;-65
2021/08/25 08:10:39;;;;;;;7.50;3.97;;;;;;;22.51;49.88;102367.84;4856452;28;124131;-65
2021/08/25 08:13:06;;;;;;;9.10;4.22;;;;;;;22.62;49.52;102357.16;4847223;29;124630;-65
2021/08/25 08:15:33;;;;;;;7.40;4.22;;;;;;;22.74;49.20;102358.09;4839538;28;115143;-68
2021/08/25 08:18:13;;;;;;;8.15;3.70;;;;;;;22.82;48.42;102362.94;4856702;29;114757;-69
2021/08/25 08:20:41;;;;;;;7.10;3.50;;;;;;;22.89;49.01;102358.81;4838914;29;123981;-68
2021/08/25 08:23:08;;;;;;;11.45;4.25;;;;;;;22.99;48.68;102357.13;4845677;28;124664;-68
2021/08/25 08:25:35;;;;;;;7.50;3.97;;;;;;;23.09;48.54;102355.53;4858807;29;114980;-68
2021/08/25 08:28:03;;;;;;;8.20;3.83;;;;;;;23.22;48.60;102362.72;4859483;28;114081;-65
2021/08/25 08:30:31;;;;;;;6.90;3.92;;;;;;;23.32;47.42;102358.34;4856531;28;123728;-65
2021/08/25 08:32:59;;;;;;;6.55;3.85;;;;;;;23.38;47.67;102363.28;4856606;28;124167;-65
2021/08/25 08:35:26;;;;;;;6.88;3.35;;;;;;;23.47;47.63;102351.78;4840633;29;114095;-68
2021/08/25 08:37:59;;;;;;;6.00;3.30;;;;;;;23.58;47.30;102353.66;4841215;29;113829;-68
2021/08/25 08:40:26;;;;;;;6.65;3.05;;;;;;;23.66;46.68;102355.78;4853918;28;124819;-69
2021/08/25 08:42:54;;;;;;;6.63;3.22;;;;;;;23.74;46.88;102347.94;4842106;29;124033;-68
2021/08/25 08:45:23;;;;;;;6.43;3.25;;;;;;;23.82;45.92;102350.94;4849381;28;114188;-68
2021/08/25 08:47:51;;;;;;;7.47;3.15;;;;;;;23.90;46.27;102351.22;4851670;29;114285;-68
2021/08/25 08:50:18;;;;;;;5.75;3.05;;;;;;;24.00;46.04;102353.22;4831721;28;123093;-68
2021/08/25 08:52:45;;;;;;;5.72;2.75;;;;;;;24.09;45.60;102352.47;4840248;29;123720;-68
2021/08/25 08:55:12;;;;;;;5.60;2.40;;;;;;;24.17;45.28;102352.75;4844427;29;114394;-68
2021/08/25 08:57:40;;;;;;;6.40;2.80;;;;;;;24.21;45.01;102351.50;4851955;29;114369;-68
2021/08/25 09:00:07;;;;;;;4.43;2.22;;;;;;;24.28;44.75;102350.03;4849630;29;124649;-68
2021/08/25 09:02:40;;;;;;;4.93;2.35;;;;;;;24.33;44.02;102344.25;4845587;28;123762;-68
2021/08/25 09:05:26;;;;;;;4.45;2.08;;;;;;;24.37;44.01;102350.28;4838745;29;115031;-68
2021/08/25 09:07:58;;;;;;;4.07;2.33;;;;;;;24.43;43.25;102349.78;4848504;28;114858;-68
2021/08/25 09:10:31;;;;;;;4.38;2.40;;;;;;;24.47;43.45;102351.28;4852045;28;123958;-69
2021/08/25 09:13:08;;;;;;;5.78;2.50;;;;;;;24.53;43.62;102350.81;4839038;28;126168;-69
2021/08/25 09:15:37;;;;;;;5.95;2.70;;;;;;;24.62;43.01;102350.06;4839628;28;114691;-68
2021/08/25 09:18:13;;;;;;;4.07;2.00;;;;;;;24.67;43.43;102345.13;4827594;29;114191;-68
2021/08/25 09:20:45;;;;;;;7.47;2.78;;;;;;;24.75;42.17;102343.63;4854955;29;124439;-68
2021/08/25 09:23:24;;;;;;;4.05;2.08;;;;;;;24.76;42.63;102339.97;4844620;29;123935;-68
2021/08/25 09:25:54;;;;;;;6.20;2.15;;;;;;;24.82;42.31;102339.44;4839648;29;113693;-68
2021/08/25 09:28:31;;;;;;;4.25;2.22;;;;;;;24.89;42.02;102340.66;4854963;29;113837;-68
2021/08/25 09:31:07;;;;;;;5.72;2.35;;;;;;;24.95;41.48;102331.16;4854465;28;124868;-68
2021/08/25 09:33:45;;;;;;;4.63;2.25;;;;;;;24.99;41.35;102336.19;4841182;29;122744;-69
2021/08/25 09:36:22;;;;;;;4.65;2.40;;;;;;;25.07;41.55;102327.41;4856210;29;114325;-68
2021/08/25 09:38:56;;;;;;;4.82;2.40;;;;;;;25.12;41.18;102321.63;4855689;28;114090;-68
2021/08/25 09:41:24;;;;;;;5.32;2.35;;;;;;;25.16;41.57;102320.38;4855797;29;124106;-68
2021/08/25 09:43:52;;;;;;;5.55;2.55;;;;;;;25.22;42.19;102309.00;4856190;29;124032;-68
2021/08/25 09:46:26;;;;;;;5.72;2.22;;;;;;;25.31;41.73;102308.28;4853272;28;114335;-69
2021/08/25 09:48:58;;;;;;;4.88;2.58;;;;;;;25.39;41.74;102308.50;4854233;28;114899;-68
2021/08/25 09:51:36;;;;;;;4.60;1.90;;;;;;;25.47;41.36;102306.97;4852463;29;124103;-68
2021/08/25 09:54:06;;;;;;;4.32;2.20;;;;;;;25.54;41.57;102308.16;4852326;28;123950;-68
2021/08/25 09:56:36;;;;;;;6.40;2.50;;;;;;;25.59;41.39;102306.78;4841280;28;115659;-68
2021/08/25 09:59:13;;;;;;;3.83;1.88;;;;;;;25.64;41.19;102303.69;4843729;28;114785;-69
2021/08/25 10:01:42;;;;;;;4.75;2.35;;;;;;;25.71;40.17;102294.03;4854650;29;124801;-68
2021/08/25 10:04:13;;;;;;;5.95;2.60;;;;;;;25.71;40.27;102294.03;4853210;28;123987;-69
2021/08/25 10:06:46;;;;;;;5.07;2.35;;;;;;;25.76;40.81;102301.75;4857449;28;114355;-68
2021/08/25 10:09:14;;;;;;;4.60;2.10;;;;;;;25.82;39.78;102302.09;4854632;28;114105;-69
2021/08/25 10:11:51;;;;;;;4.15;2.20;;;;;;;25.86;40.10;102296.38;4840955;29;123979;-68
2021/08/25 10:14:19;;;;;;;5.00;2.10;;;;;;;25.90;40.59;102286.97;4841346;28;124350;-68
2021/08/25 10:16:50;;;;;;;4.43;2.47;;;;;;;25.93;40.09;102286.75;4840855;29;113582;-69
2021/08/25 10:19:34;;;;;;;5.18;2.50;;;;;;;25.95;39.62;102284.75;4854965;29;114353;-68
2021/08/25 10:22:14;;;;;;;4.00;2.40;;;;;;;25.94;39.32;102288.47;4854484;29;124898;-68
2021/08/25 10:24:53;;;;;;;6.57;2.45;;;;;;;25.94;39.81;102280.31;4851513;29;123938;-68
2021/08/25 10:27:22;;;;;;;3.15;1.98;;;;;;;25.95;39.74;102279.31;4855338;28;114624;-68
2021/08/25 10:30:05;;;;;;;3.70;2.05;;;;;;;25.95;39.62;102263.88;4854897;29;113987;-68
2021/08/25 10:32:35;;;;;;;5.10;2.40;;;;;;;25.99;39.08;102269.91;4849640;29;124851;-68
2021/08/25 10:35:11;;;;;;;4.97;2.20;;;;;;;26.03;39.41;102271.34;4845324;29;124291;-69
2021/08/25 10:37:40;;;;;;;4.90;2.15;;;;;;;26.05;39.45;102265.78;4843979;29;114905;-68
2021/08/25 10:40:08;;;;;;;4.15;2.25;;;;;;;26.06;39.26;102262.94;4845777;29;114362;-68
2021/08/25 10:42:42;;;;;;;5.07;2.45;;;;;;;26.08;38.92;102269.09;4847586;29;123973;-68
2021/08/25 10:45:10;;;;;;;4.88;2.40;;;;;;;26.11;38.84;102266.09;4844022;29;124522;-68
2021/08/25 10:47:58;;;;;;;4.40;2.42;;;;;;;26.13;38.13;102261.41;4843142;29;115362;-68
2021/08/25 10:50:51;;;;;;;6.82;2.65;;;;;;;26.16;38.73;102266.56;4853888;29;115197;-68
2021/08/25 10:53:27;;;;;;;6.18;2.50;;;;;;;26.20;39.17;102268.00;4845504;29;124883;-68
2021/08/25 10:56:20;;;;;;;5.97;2.50;;;;;;;26.26;38.55;102265.72;4848659;29;124744;-68
2021/08/25 10:58:51;;;;;;;5.38;2.40;;;;;;;26.29;38.32;102265.44;4843034;29;114182;-69
2021/08/25 11:01:22;;;;;;;4.68;2.35;;;;;;;26.35;38.65;102259.47;4842191;28;113763;-68
2021/08/25 11:03:51;;;;;;;4.45;2.50;;;;;;;26.39;38.22;102255.47;4849986;29;124456;-69
2021/08/25 11:06:29;;;;;;;5.88;2.30;;;;;;;26.42;38.09;102233.47;4853183;29;123604;-69
2021/08/25 11:09:12;;;;;;;5.20;2.40;;;;;;;26.43;37.98;102237.91;4846596;29;114323;-68
2021/08/25 11:11:49;;;;;;;3.78;2.25;;;;;;;26.43;37.82;102229.75;4835447;29;113922;-69
2021/08/25 11:14:39;;;;;;;4.32;2.40;;;;;;;26.43;37.92;102227.03;4845856;29;124251;-69
2021/08/25 11:17:20;;;;;;;5.40;2.55;;;;;;;26.44;37.75;102217.88;4840194;29;124087;-69
2021/08/25 11:20:07;;;;;;;5.43;2.60;;;;;;;26.47;37.51;102211.31;4848077;29;114580;-68
2021/08/25 11:22:36;;;;;;;3.78;2.17;;;;;;;26.52;37.90;102206.31;4847135;29;114715;-68
2021/08/25 11:25:11;;;;;;;4.93;2.50;;;;;;;26.57;37.55;102204.03;4842631;29;123886;-69
2021/08/25 11:27:47;;;;;;;6.60;2.60;;;;;;;26.59;37.49;102202.91;4847128;29;123507;-69